sensor_id;sensor_type;location;lat;lon;timestamp;temperature;humidity
35894;DHT22;21994;48.204;16.516;2023-04-15T00:01:31;4.40;99.90
35894;DHT22;21994;48.204;16.516;2023-04-15T00:03:58;4.40;99.90
35894;DHT22;21994;48.204;16.516;2023-04-15T00:06:24;4.40;99.90
35894;DHT22;21994;48.204;16.516;2023-04-15T00:08:50;4.40;99.90
35894;DHT22;21994;48.204;16.516;2023-04-15T00:11:16;4.40;99.90
35894;DHT22;21994;48.204;16.516;2023-04-15T00:13:42;4.40;99.90
35894;DHT22;21994;48.204;16.516;2023-04-15T00:16:08;4.40;99.90
35894;DHT22;21994;48.204;16.516;2023-04-15T00:18:35;4.40;99.90
35894;DHT22;21994;48.204;16.516;2023-04-15T00:21:02;4.40;99.90
35894;DHT22;21994;48.204;16.516;2023-04-15T00:23:29;4.40;99.90
35894;DHT22;21994;48.204;16.516;2023-04-15T00:25:55;4.40;99.90
35894;DHT22;21994;48.204;16.516;2023-04-15T00:28:21;4.40;99.90
35894;DHT22;21994;48.204;16.516;2023-04-15T00:30:47;4.40;99.90
35894;DHT22;21994;48.204;16.516;2023-04-15T00:33:16;4.40;99.90
35894;DHT22;21994;48.204;16.516;2023-04-15T00:35:42;4.50;99.90
35894;DHT22;21994;48.204;16.516;2023-04-15T00:38:07;4.50;99.90
35894;DHT22;21994;48.204;16.516;2023-04-15T00:40:33;4.50;99.90
35894;DHT22;21994;48.204;16.516;2023-04-15T00:42:59;4.50;99.90
35894;DHT22;21994;48.204;16.516;2023-04-15T00:45:25;4.50;99.90
35894;DHT22;21994;48.204;16.516;2023-04-15T00:47:54;4.50;99.90
35894;DHT22;21994;48.204;16.516;2023-04-15T00:50:21;4.50;99.90
35894;DHT22;21994;48.204;16.516;2023-04-15T00:52:47;4.50;99.90
35894;DHT22;21994;48.204;16.516;2023-04-15T00:55:14;4.50;99.90
35894;DHT22;21994;48.204;16.516;2023-04-15T00:57:40;4.50;99.90
35894;DHT22;21994;48.204;16.516;2023-04-15T01:00:06;4.60;99.90
35894;DHT22;21994;48.204;16.516;2023-04-15T01:02:33;4.60;99.90
35894;DHT22;21994;48.204;16.516;2023-04-15T01:05:00;4.60;99.90
35894;DHT22;21994;48.204;16.516;2023-04-15T01:07:27;4.60;99.90
35894;DHT22;21994;48.204;16.516;2023-04-15T01:09:53;4.60;99.90
35894;DHT22;21994;48.204;16.516;2023-04-15T01:12:18;4.60;99.90
35894;DHT22;21994;48.204;16.516;2023-04-15T01:14:45;4.60;99.90
35894;DHT22;21994;48.204;16.516;2023-04-15T01:17:10;4.70;99.90
35894;DHT22;21994;48.204;16.516;2023-04-15T01:19:37;4.60;99.90
35894;DHT22;21994;48.204;16.516;2023-04-15T01:22:04;4.70;99.90
35894;DHT22;21994;48.204;16.516;2023-04-15T01:24:33;4.70;99.90
35894;DHT22;21994;48.204;16.516;2023-04-15T01:26:59;4.70;99.90
35894;DHT22;21994;48.204;16.516;2023-04-15T01:29:25;4.70;99.90
35894;DHT22;21994;48.204;16.516;2023-04-15T01:31:53;4.70;99.90
35894;DHT22;21994;48.204;16.516;2023-04-15T01:34:20;4.70;99.90
35894;DHT22;21994;48.204;16.516;2023-04-15T01:36:46;4.80;99.90
35894;DHT22;21994;48.204;16.516;2023-04-15T01:39:12;4.80;99.90
35894;DHT22;21994;48.204;16.516;2023-04-15T01:41:38;4.80;99.90
35894;DHT22;21994;48.204;16.516;2023-04-15T01:44:05;4.80;99.90
35894;DHT22;21994;48.204;16.516;2023-04-15T01:46:31;4.80;99.90
35894;DHT22;21994;48.204;16.516;2023-04-15T01:48:57;4.80;99.90
35894;DHT22;21994;48.204;16.516;2023-04-15T01:51:23;4.70;99.90
35894;DHT22;21994;48.204;16.516;2023-04-15T01:53:49;4.70;99.90
35894;DHT22;21994;48.204;16.516;2023-04-15T01:56:15;4.60;99.90
35894;DHT22;21994;48.204;16.516;2023-04-15T01:58:41;4.70;99.90
35894;DHT22;21994;48.204;16.516;2023-04-15T02:01:07;4.80;99.90
35894;DHT22;21994;48.204;16.516;2023-04-15T02:03:34;4.70;99.90
35894;DHT22;21994;48.204;16.516;2023-04-15T02:06:00;4.80;99.90
35894;DHT22;21994;48.204;16.516;2023-04-15T02:08:26;4.80;99.90
35894;DHT22;21994;48.204;16.516;2023-04-15T02:10:51;4.80;99.90
35894;DHT22;21994;48.204;16.516;2023-04-15T02:13:17;4.80;99.90
35894;DHT22;21994;48.204;16.516;2023-04-15T02:15:47;4.80;99.90
35894;DHT22;21994;48.204;16.516;2023-04-15T02:18:14;4.80;99.90
35894;DHT22;21994;48.204;16.516;2023-04-15T02:20:41;4.80;99.90
35894;DHT22;21994;48.204;16.516;2023-04-15T02:23:08;4.70;99.90
35894;DHT22;21994;48.204;16.516;2023-04-15T02:25:34;4.80;99.90
35894;DHT22;21994;48.204;16.516;2023-04-15T02:27:59;4.90;99.90
35894;DHT22;21994;48.204;16.516;2023-04-15T02:30:25;4.90;99.90
35894;DHT22;21994;48.204;16.516;2023-04-15T02:32:51;4.90;99.90
35894;DHT22;21994;48.204;16.516;2023-04-15T02:35:17;4.90;99.90
35894;DHT22;21994;48.204;16.516;2023-04-15T02:37:44;4.90;99.90
35894;DHT22;21994;48.204;16.516;2023-04-15T02:40:10;4.90;99.90
35894;DHT22;21994;48.204;16.516;2023-04-15T02:42:37;4.90;99.90
35894;DHT22;21994;48.204;16.516;2023-04-15T02:45:06;4.90;99.90
35894;DHT22;21994;48.204;16.516;2023-04-15T02:47:35;4.80;99.90
35894;DHT22;21994;48.204;16.516;2023-04-15T02:50:02;4.90;99.90
35894;DHT22;21994;48.204;16.516;2023-04-15T02:52:28;5.00;99.90
35894;DHT22;21994;48.204;16.516;2023-04-15T02:54:54;5.00;99.90
35894;DHT22;21994;48.204;16.516;2023-04-15T02:57:25;4.90;99.90
35894;DHT22;21994;48.204;16.516;2023-04-15T02:59:53;4.90;99.90
35894;DHT22;21994;48.204;16.516;2023-04-15T03:02:18;4.90;99.90
35894;DHT22;21994;48.204;16.516;2023-04-15T03:04:47;4.90;99.90
35894;DHT22;21994;48.204;16.516;2023-04-15T03:07:13;5.00;99.90
35894;DHT22;21994;48.204;16.516;2023-04-15T03:09:39;4.90;99.90
35894;DHT22;21994;48.204;16.516;2023-04-15T03:12:05;4.90;99.90
35894;DHT22;21994;48.204;16.516;2023-04-15T03:14:31;4.80;99.90
35894;DHT22;21994;48.204;16.516;2023-04-15T03:16:57;4.80;99.90
35894;DHT22;21994;48.204;16.516;2023-04-15T03:19:24;4.90;99.90
35894;DHT22;21994;48.204;16.516;2023-04-15T03:21:50;4.90;99.90
35894;DHT22;21994;48.204;16.516;2023-04-15T03:24:16;5.00;99.90
35894;DHT22;21994;48.204;16.516;2023-04-15T03:26:42;5.00;99.90
35894;DHT22;21994;48.204;16.516;2023-04-15T03:29:08;5.00;99.90
35894;DHT22;21994;48.204;16.516;2023-04-15T03:31:34;5.00;99.90
35894;DHT22;21994;48.204;16.516;2023-04-15T03:34:00;4.90;99.90
35894;DHT22;21994;48.204;16.516;2023-04-15T03:36:26;4.90;99.90
35894;DHT22;21994;48.204;16.516;2023-04-15T03:38:56;5.00;99.90
35894;DHT22;21994;48.204;16.516;2023-04-15T03:41:22;5.00;99.90
35894;DHT22;21994;48.204;16.516;2023-04-15T03:43:48;5.00;99.90
35894;DHT22;21994;48.204;16.516;2023-04-15T03:46:16;4.90;99.90
35894;DHT22;21994;48.204;16.516;2023-04-15T03:48:42;5.00;99.90
35894;DHT22;21994;48.204;16.516;2023-04-15T03:51:08;5.00;99.90
35894;DHT22;21994;48.204;16.516;2023-04-15T03:53:34;5.00;99.90
35894;DHT22;21994;48.204;16.516;2023-04-15T03:56:00;4.90;99.90
35894;DHT22;21994;48.204;16.516;2023-04-15T03:58:26;4.90;99.90
35894;DHT22;21994;48.204;16.516;2023-04-15T04:00:52;4.90;99.90
35894;DHT22;21994;48.204;16.516;2023-04-15T04:03:19;4.80;99.90
35894;DHT22;21994;48.204;16.516;2023-04-15T04:05:45;4.90;99.90
35894;DHT22;21994;48.204;16.516;2023-04-15T04:08:11;4.90;99.90
35894;DHT22;21994;48.204;16.516;2023-04-15T04:10:38;5.00;99.90
35894;DHT22;21994;48.204;16.516;2023-04-15T04:13:04;4.90;99.90
35894;DHT22;21994;48.204;16.516;2023-04-15T04:15:30;5.00;99.90
35894;DHT22;21994;48.204;16.516;2023-04-15T04:17:56;5.00;99.90
35894;DHT22;21994;48.204;16.516;2023-04-15T04:20:22;4.90;99.90
35894;DHT22;21994;48.204;16.516;2023-04-15T04:22:47;4.90;99.90
35894;DHT22;21994;48.204;16.516;2023-04-15T04:25:14;4.90;99.90
35894;DHT22;21994;48.204;16.516;2023-04-15T04:27:40;4.90;99.90
35894;DHT22;21994;48.204;16.516;2023-04-15T04:30:06;4.80;99.90
35894;DHT22;21994;48.204;16.516;2023-04-15T04:32:32;4.80;99.90
35894;DHT22;21994;48.204;16.516;2023-04-15T04:34:58;4.80;99.90
35894;DHT22;21994;48.204;16.516;2023-04-15T04:37:24;4.90;99.90
35894;DHT22;21994;48.204;16.516;2023-04-15T04:39:50;5.00;99.90
35894;DHT22;21994;48.204;16.516;2023-04-15T04:42:16;5.00;99.90
35894;DHT22;21994;48.204;16.516;2023-04-15T04:44:42;5.10;99.90
35894;DHT22;21994;48.204;16.516;2023-04-15T04:47:08;5.00;99.90
35894;DHT22;21994;48.204;16.516;2023-04-15T04:49:34;5.00;99.90
35894;DHT22;21994;48.204;16.516;2023-04-15T04:52:03;5.10;99.90
35894;DHT22;21994;48.204;16.516;2023-04-15T04:54:29;5.10;99.90
35894;DHT22;21994;48.204;16.516;2023-04-15T04:56:55;5.10;99.90
35894;DHT22;21994;48.204;16.516;2023-04-15T04:59:22;5.10;99.90
35894;DHT22;21994;48.204;16.516;2023-04-15T05:01:48;5.20;99.90
35894;DHT22;21994;48.204;16.516;2023-04-15T05:04:14;5.20;99.90
35894;DHT22;21994;48.204;16.516;2023-04-15T05:06:39;5.20;99.90
35894;DHT22;21994;48.204;16.516;2023-04-15T05:09:05;5.30;99.90
35894;DHT22;21994;48.204;16.516;2023-04-15T05:11:31;5.20;99.90
35894;DHT22;21994;48.204;16.516;2023-04-15T05:13:57;5.20;99.90
35894;DHT22;21994;48.204;16.516;2023-04-15T05:16:25;5.20;99.90
35894;DHT22;21994;48.204;16.516;2023-04-15T05:18:52;5.30;99.90
35894;DHT22;21994;48.204;16.516;2023-04-15T05:21:18;5.40;99.90
35894;DHT22;21994;48.204;16.516;2023-04-15T05:23:44;5.60;99.90
35894;DHT22;21994;48.204;16.516;2023-04-15T05:26:10;5.60;99.90
35894;DHT22;21994;48.204;16.516;2023-04-15T05:28:35;5.70;99.90
35894;DHT22;21994;48.204;16.516;2023-04-15T05:31:01;5.70;99.90
35894;DHT22;21994;48.204;16.516;2023-04-15T05:33:27;5.70;99.90
35894;DHT22;21994;48.204;16.516;2023-04-15T05:35:53;5.70;99.90
35894;DHT22;21994;48.204;16.516;2023-04-15T05:38:19;5.90;99.90
35894;DHT22;21994;48.204;16.516;2023-04-15T05:40:44;6.00;99.90
35894;DHT22;21994;48.204;16.516;2023-04-15T05:43:10;5.90;99.90
35894;DHT22;21994;48.204;16.516;2023-04-15T05:45:36;6.00;99.90
35894;DHT22;21994;48.204;16.516;2023-04-15T05:48:02;6.10;99.90
35894;DHT22;21994;48.204;16.516;2023-04-15T05:50:28;6.10;99.90
35894;DHT22;21994;48.204;16.516;2023-04-15T05:52:54;6.20;99.90
35894;DHT22;21994;48.204;16.516;2023-04-15T05:55:20;6.20;99.90
35894;DHT22;21994;48.204;16.516;2023-04-15T05:57:46;6.40;99.90
35894;DHT22;21994;48.204;16.516;2023-04-15T06:00:12;6.50;99.90
35894;DHT22;21994;48.204;16.516;2023-04-15T06:02:38;6.50;99.90
35894;DHT22;21994;48.204;16.516;2023-04-15T06:05:04;6.50;99.90
35894;DHT22;21994;48.204;16.516;2023-04-15T06:07:35;6.60;99.90
35894;DHT22;21994;48.204;16.516;2023-04-15T06:10:02;6.80;99.90
35894;DHT22;21994;48.204;16.516;2023-04-15T06:12:29;7.00;99.90
35894;DHT22;21994;48.204;16.516;2023-04-15T06:14:54;7.10;99.90
35894;DHT22;21994;48.204;16.516;2023-04-15T06:17:21;7.30;99.90
35894;DHT22;21994;48.204;16.516;2023-04-15T06:19:47;7.40;99.90
35894;DHT22;21994;48.204;16.516;2023-04-15T06:22:14;7.50;99.90
35894;DHT22;21994;48.204;16.516;2023-04-15T06:24:41;7.60;99.90
35894;DHT22;21994;48.204;16.516;2023-04-15T06:27:06;7.70;99.90
35894;DHT22;21994;48.204;16.516;2023-04-15T06:29:32;7.70;99.90
35894;DHT22;21994;48.204;16.516;2023-04-15T06:31:58;7.70;99.90
35894;DHT22;21994;48.204;16.516;2023-04-15T06:34:24;7.60;99.90
35894;DHT22;21994;48.204;16.516;2023-04-15T06:36:50;7.60;99.90
35894;DHT22;21994;48.204;16.516;2023-04-15T06:39:15;7.60;99.90
35894;DHT22;21994;48.204;16.516;2023-04-15T06:41:41;7.50;99.90
35894;DHT22;21994;48.204;16.516;2023-04-15T06:44:07;7.50;99.90
35894;DHT22;21994;48.204;16.516;2023-04-15T06:46:33;7.60;99.90
35894;DHT22;21994;48.204;16.516;2023-04-15T06:48:58;7.50;99.90
35894;DHT22;21994;48.204;16.516;2023-04-15T06:51:24;7.60;99.90
35894;DHT22;21994;48.204;16.516;2023-04-15T06:53:51;7.50;99.90
35894;DHT22;21994;48.204;16.516;2023-04-15T06:56:17;7.60;99.90
35894;DHT22;21994;48.204;16.516;2023-04-15T06:58:42;7.50;99.90
35894;DHT22;21994;48.204;16.516;2023-04-15T07:01:08;7.70;99.90
35894;DHT22;21994;48.204;16.516;2023-04-15T07:03:34;7.70;99.90
35894;DHT22;21994;48.204;16.516;2023-04-15T07:06:00;7.80;99.90
35894;DHT22;21994;48.204;16.516;2023-04-15T07:08:30;8.00;99.90
35894;DHT22;21994;48.204;16.516;2023-04-15T07:10:58;8.10;99.90
35894;DHT22;21994;48.204;16.516;2023-04-15T07:13:25;8.10;99.90
35894;DHT22;21994;48.204;16.516;2023-04-15T07:15:50;8.20;99.90
35894;DHT22;21994;48.204;16.516;2023-04-15T07:18:16;8.10;99.90
35894;DHT22;21994;48.204;16.516;2023-04-15T07:20:42;8.10;99.90
35894;DHT22;21994;48.204;16.516;2023-04-15T07:23:08;8.10;99.90
35894;DHT22;21994;48.204;16.516;2023-04-15T07:25:34;8.00;99.90
35894;DHT22;21994;48.204;16.516;2023-04-15T07:28:00;8.10;99.90
35894;DHT22;21994;48.204;16.516;2023-04-15T07:30:26;8.10;99.90
35894;DHT22;21994;48.204;16.516;2023-04-15T07:32:53;8.10;99.90
35894;DHT22;21994;48.204;16.516;2023-04-15T07:35:18;8.10;99.90
35894;DHT22;21994;48.204;16.516;2023-04-15T07:37:46;8.20;99.90
35894;DHT22;21994;48.204;16.516;2023-04-15T07:40:12;8.20;99.90
35894;DHT22;21994;48.204;16.516;2023-04-15T07:42:39;8.40;99.90
35894;DHT22;21994;48.204;16.516;2023-04-15T07:45:05;8.50;99.90
35894;DHT22;21994;48.204;16.516;2023-04-15T07:47:31;8.60;99.90
35894;DHT22;21994;48.204;16.516;2023-04-15T07:49:57;8.70;99.90
35894;DHT22;21994;48.204;16.516;2023-04-15T07:52:23;8.80;99.90
35894;DHT22;21994;48.204;16.516;2023-04-15T07:54:48;8.90;99.90
35894;DHT22;21994;48.204;16.516;2023-04-15T07:57:14;8.90;99.90
35894;DHT22;21994;48.204;16.516;2023-04-15T07:59:41;9.00;99.90
35894;DHT22;21994;48.204;16.516;2023-04-15T08:02:07;8.90;99.90
35894;DHT22;21994;48.204;16.516;2023-04-15T08:04:33;8.90;99.90
35894;DHT22;21994;48.204;16.516;2023-04-15T08:06:58;8.70;99.90
35894;DHT22;21994;48.204;16.516;2023-04-15T08:09:24;8.70;99.90
35894;DHT22;21994;48.204;16.516;2023-04-15T08:11:51;8.60;99.90
35894;DHT22;21994;48.204;16.516;2023-04-15T08:14:17;8.50;99.90
35894;DHT22;21994;48.204;16.516;2023-04-15T08:16:43;8.40;99.90
35894;DHT22;21994;48.204;16.516;2023-04-15T08:19:09;8.40;99.90
35894;DHT22;21994;48.204;16.516;2023-04-15T08:21:35;8.30;99.90
35894;DHT22;21994;48.204;16.516;2023-04-15T08:24:00;8.40;99.90
35894;DHT22;21994;48.204;16.516;2023-04-15T08:26:27;8.40;99.90
35894;DHT22;21994;48.204;16.516;2023-04-15T08:28:53;8.40;99.90
35894;DHT22;21994;48.204;16.516;2023-04-15T08:31:19;8.40;99.90
35894;DHT22;21994;48.204;16.516;2023-04-15T08:33:45;8.40;99.90
35894;DHT22;21994;48.204;16.516;2023-04-15T08:36:11;8.40;99.90
35894;DHT22;21994;48.204;16.516;2023-04-15T08:38:38;8.40;99.90
35894;DHT22;21994;48.204;16.516;2023-04-15T08:41:11;8.30;99.90
35894;DHT22;21994;48.204;16.516;2023-04-15T08:44:00;8.50;99.90
35894;DHT22;21994;48.204;16.516;2023-04-15T08:46:29;8.60;99.90
35894;DHT22;21994;48.204;16.516;2023-04-15T08:48:57;8.70;99.90
35894;DHT22;21994;48.204;16.516;2023-04-15T08:51:23;8.80;99.90
35894;DHT22;21994;48.204;16.516;2023-04-15T08:53:49;8.90;99.90
35894;DHT22;21994;48.204;16.516;2023-04-15T08:56:15;8.90;99.90
35894;DHT22;21994;48.204;16.516;2023-04-15T08:58:43;8.80;99.90
35894;DHT22;21994;48.204;16.516;2023-04-15T09:01:10;8.80;99.90
35894;DHT22;21994;48.204;16.516;2023-04-15T09:03:37;8.80;99.90
35894;DHT22;21994;48.204;16.516;2023-04-15T09:06:04;8.80;99.90
35894;DHT22;21994;48.204;16.516;2023-04-15T09:08:31;8.70;99.90
35894;DHT22;21994;48.204;16.516;2023-04-15T09:10:59;8.60;99.90
35894;DHT22;21994;48.204;16.516;2023-04-15T09:13:25;8.50;99.90
35894;DHT22;21994;48.204;16.516;2023-04-15T09:15:51;8.40;99.90
35894;DHT22;21994;48.204;16.516;2023-04-15T09:18:31;8.40;99.90
35894;DHT22;21994;48.204;16.516;2023-04-15T09:21:04;8.40;99.90
35894;DHT22;21994;48.204;16.516;2023-04-15T09:23:36;8.30;99.90
35894;DHT22;21994;48.204;16.516;2023-04-15T09:26:02;8.30;99.90
35894;DHT22;21994;48.204;16.516;2023-04-15T09:28:29;8.40;99.90
35894;DHT22;21994;48.204;16.516;2023-04-15T09:30:58;8.40;99.90
35894;DHT22;21994;48.204;16.516;2023-04-15T09:33:28;8.40;99.90
35894;DHT22;21994;48.204;16.516;2023-04-15T09:36:04;8.40;99.90
35894;DHT22;21994;48.204;16.516;2023-04-15T09:38:31;8.50;99.90
35894;DHT22;21994;48.204;16.516;2023-04-15T09:40:57;8.50;99.90
35894;DHT22;21994;48.204;16.516;2023-04-15T09:43:39;8.50;99.90
35894;DHT22;21994;48.204;16.516;2023-04-15T09:46:05;8.70;99.90
35894;DHT22;21994;48.204;16.516;2023-04-15T09:48:31;8.90;99.90
35894;DHT22;21994;48.204;16.516;2023-04-15T09:50:57;8.80;99.90
35894;DHT22;21994;48.204;16.516;2023-04-15T09:53:24;8.80;99.90
35894;DHT22;21994;48.204;16.516;2023-04-15T09:55:51;8.90;99.90
35894;DHT22;21994;48.204;16.516;2023-04-15T10:00:48;9.10;99.90
35894;DHT22;21994;48.204;16.516;2023-04-15T10:03:28;9.20;99.90
35894;DHT22;21994;48.204;16.516;2023-04-15T10:05:56;9.20;99.90
35894;DHT22;21994;48.204;16.516;2023-04-15T10:08:27;9.20;99.90
35894;DHT22;21994;48.204;16.516;2023-04-15T10:10:54;9.20;99.90
35894;DHT22;21994;48.204;16.516;2023-04-15T10:13:21;9.10;99.90
35894;DHT22;21994;48.204;16.516;2023-04-15T10:15:59;9.00;99.90
35894;DHT22;21994;48.204;16.516;2023-04-15T10:18:26;8.90;99.90
35894;DHT22;21994;48.204;16.516;2023-04-15T10:20:53;8.90;99.90
35894;DHT22;21994;48.204;16.516;2023-04-15T10:23:21;8.80;99.90
35894;DHT22;21994;48.204;16.516;2023-04-15T10:25:50;8.80;99.90
35894;DHT22;21994;48.204;16.516;2023-04-15T10:28:17;9.00;99.90
35894;DHT22;21994;48.204;16.516;2023-04-15T10:30:44;9.10;99.90
35894;DHT22;21994;48.204;16.516;2023-04-15T10:33:10;9.30;99.90
35894;DHT22;21994;48.204;16.516;2023-04-15T10:35:36;9.30;99.90
35894;DHT22;21994;48.204;16.516;2023-04-15T10:38:06;9.40;99.90
35894;DHT22;21994;48.204;16.516;2023-04-15T10:41:19;9.50;99.90
35894;DHT22;21994;48.204;16.516;2023-04-15T10:43:50;9.50;99.90
35894;DHT22;21994;48.204;16.516;2023-04-15T10:46:39;9.40;99.90
35894;DHT22;21994;48.204;16.516;2023-04-15T10:51:40;9.20;99.90
35894;DHT22;21994;48.204;16.516;2023-04-15T10:56:43;9.30;99.90
35894;DHT22;21994;48.204;16.516;2023-04-15T10:59:10;9.50;99.90
35894;DHT22;21994;48.204;16.516;2023-04-15T11:01:55;9.60;99.90
35894;DHT22;21994;48.204;16.516;2023-04-15T11:07:31;9.60;99.90
35894;DHT22;21994;48.204;16.516;2023-04-15T11:12:50;9.70;99.90
35894;DHT22;21994;48.204;16.516;2023-04-15T11:15:33;9.70;99.90
35894;DHT22;21994;48.204;16.516;2023-04-15T11:18:08;9.80;99.90
35894;DHT22;21994;48.204;16.516;2023-04-15T11:20:35;9.80;99.90
35894;DHT22;21994;48.204;16.516;2023-04-15T11:23:01;9.70;99.90
35894;DHT22;21994;48.204;16.516;2023-04-15T11:25:29;9.60;99.90
35894;DHT22;21994;48.204;16.516;2023-04-15T11:27:57;9.60;99.90
35894;DHT22;21994;48.204;16.516;2023-04-15T11:30:24;9.50;99.90
35894;DHT22;21994;48.204;16.516;2023-04-15T11:32:52;9.60;99.90
35894;DHT22;21994;48.204;16.516;2023-04-15T11:35:19;9.70;99.90
35894;DHT22;21994;48.204;16.516;2023-04-15T11:37:45;9.80;99.90
35894;DHT22;21994;48.204;16.516;2023-04-15T11:40:12;9.60;99.90
35894;DHT22;21994;48.204;16.516;2023-04-15T11:42:40;9.60;99.90
35894;DHT22;21994;48.204;16.516;2023-04-15T11:45:12;9.50;99.90
35894;DHT22;21994;48.204;16.516;2023-04-15T11:47:40;9.60;99.90
35894;DHT22;21994;48.204;16.516;2023-04-15T11:50:17;9.70;99.90
35894;DHT22;21994;48.204;16.516;2023-04-15T11:55:19;9.90;99.90
35894;DHT22;21994;48.204;16.516;2023-04-15T11:57:45;9.60;99.90
35894;DHT22;21994;48.204;16.516;2023-04-15T12:00:11;9.50;99.90
35894;DHT22;21994;48.204;16.516;2023-04-15T12:02:37;9.60;99.90
35894;DHT22;21994;48.204;16.516;2023-04-15T12:05:07;9.70;99.90
35894;DHT22;21994;48.204;16.516;2023-04-15T12:07:56;9.70;99.90
35894;DHT22;21994;48.204;16.516;2023-04-15T12:10:25;9.70;99.90
35894;DHT22;21994;48.204;16.516;2023-04-15T12:12:51;9.70;99.90
35894;DHT22;21994;48.204;16.516;2023-04-15T12:15:20;9.70;99.90
35894;DHT22;21994;48.204;16.516;2023-04-15T12:17:48;9.80;99.90
35894;DHT22;21994;48.204;16.516;2023-04-15T12:20:19;9.90;99.90
35894;DHT22;21994;48.204;16.516;2023-04-15T12:22:46;10.00;99.90
35894;DHT22;21994;48.204;16.516;2023-04-15T12:25:12;10.20;99.90
35894;DHT22;21994;48.204;16.516;2023-04-15T12:27:39;10.30;99.90
35894;DHT22;21994;48.204;16.516;2023-04-15T12:30:05;10.40;99.90
35894;DHT22;21994;48.204;16.516;2023-04-15T12:32:36;10.40;99.90
35894;DHT22;21994;48.204;16.516;2023-04-15T12:35:02;10.20;99.90
35894;DHT22;21994;48.204;16.516;2023-04-15T12:37:28;10.10;99.90
35894;DHT22;21994;48.204;16.516;2023-04-15T12:39:53;10.20;99.90
35894;DHT22;21994;48.204;16.516;2023-04-15T12:42:22;10.10;99.90
35894;DHT22;21994;48.204;16.516;2023-04-15T12:44:48;10.00;99.90
35894;DHT22;21994;48.204;16.516;2023-04-15T12:47:14;10.00;99.90
35894;DHT22;21994;48.204;16.516;2023-04-15T12:49:40;10.00;99.90
35894;DHT22;21994;48.204;16.516;2023-04-15T12:52:05;10.00;99.90
35894;DHT22;21994;48.204;16.516;2023-04-15T12:54:31;9.90;99.90
35894;DHT22;21994;48.204;16.516;2023-04-15T12:56:58;9.90;99.90
35894;DHT22;21994;48.204;16.516;2023-04-15T12:59:24;9.80;99.90
35894;DHT22;21994;48.204;16.516;2023-04-15T13:01:50;9.60;99.90
35894;DHT22;21994;48.204;16.516;2023-04-15T13:04:16;9.60;99.90
35894;DHT22;21994;48.204;16.516;2023-04-15T13:06:42;9.50;99.90
35894;DHT22;21994;48.204;16.516;2023-04-15T13:09:08;9.40;99.90
35894;DHT22;21994;48.204;16.516;2023-04-15T13:11:34;9.30;99.90
35894;DHT22;21994;48.204;16.516;2023-04-15T13:14:01;9.20;99.90
35894;DHT22;21994;48.204;16.516;2023-04-15T13:16:31;9.20;99.90
35894;DHT22;21994;48.204;16.516;2023-04-15T13:18:58;9.10;99.90
35894;DHT22;21994;48.204;16.516;2023-04-15T13:21:24;9.10;99.90
35894;DHT22;21994;48.204;16.516;2023-04-15T13:23:51;9.30;99.90
35894;DHT22;21994;48.204;16.516;2023-04-15T13:26:17;9.50;99.90
35894;DHT22;21994;48.204;16.516;2023-04-15T13:28:43;9.70;99.90
35894;DHT22;21994;48.204;16.516;2023-04-15T13:31:12;9.80;99.90
35894;DHT22;21994;48.204;16.516;2023-04-15T13:33:38;9.70;99.90
35894;DHT22;21994;48.204;16.516;2023-04-15T13:36:04;9.60;99.90
35894;DHT22;21994;48.204;16.516;2023-04-15T13:38:30;9.60;99.90
35894;DHT22;21994;48.204;16.516;2023-04-15T13:40:56;9.90;99.90
35894;DHT22;21994;48.204;16.516;2023-04-15T13:43:22;10.50;99.90
35894;DHT22;21994;48.204;16.516;2023-04-15T13:45:47;10.90;99.90
35894;DHT22;21994;48.204;16.516;2023-04-15T13:48:14;11.20;99.90
35894;DHT22;21994;48.204;16.516;2023-04-15T13:50:40;11.40;99.90
35894;DHT22;21994;48.204;16.516;2023-04-15T13:53:10;11.60;99.90
35894;DHT22;21994;48.204;16.516;2023-04-15T13:55:36;11.80;99.90
35894;DHT22;21994;48.204;16.516;2023-04-15T13:58:06;11.60;99.90
35894;DHT22;21994;48.204;16.516;2023-04-15T14:00:33;11.50;99.90
35894;DHT22;21994;48.204;16.516;2023-04-15T14:02:59;11.30;99.90
35894;DHT22;21994;48.204;16.516;2023-04-15T14:05:24;11.00;99.90
35894;DHT22;21994;48.204;16.516;2023-04-15T14:07:50;10.70;99.90
35894;DHT22;21994;48.204;16.516;2023-04-15T14:10:16;10.40;99.90
35894;DHT22;21994;48.204;16.516;2023-04-15T14:12:42;10.20;99.90
35894;DHT22;21994;48.204;16.516;2023-04-15T14:15:10;10.20;99.90
35894;DHT22;21994;48.204;16.516;2023-04-15T14:17:36;10.20;99.90
35894;DHT22;21994;48.204;16.516;2023-04-15T14:20:03;10.30;99.90
35894;DHT22;21994;48.204;16.516;2023-04-15T14:22:32;10.40;99.90
35894;DHT22;21994;48.204;16.516;2023-04-15T14:24:57;10.30;99.90
35894;DHT22;21994;48.204;16.516;2023-04-15T14:27:23;10.30;99.90
35894;DHT22;21994;48.204;16.516;2023-04-15T14:29:49;10.10;99.90
35894;DHT22;21994;48.204;16.516;2023-04-15T14:32:15;9.90;99.90
35894;DHT22;21994;48.204;16.516;2023-04-15T14:34:41;9.70;99.90
35894;DHT22;21994;48.204;16.516;2023-04-15T14:37:07;9.60;99.90
35894;DHT22;21994;48.204;16.516;2023-04-15T14:39:32;9.60;99.90
35894;DHT22;21994;48.204;16.516;2023-04-15T14:41:58;9.70;99.90
35894;DHT22;21994;48.204;16.516;2023-04-15T14:44:24;9.90;99.90
35894;DHT22;21994;48.204;16.516;2023-04-15T14:46:50;10.00;99.90
35894;DHT22;21994;48.204;16.516;2023-04-15T14:49:16;10.20;99.90
35894;DHT22;21994;48.204;16.516;2023-04-15T14:51:42;10.30;99.90
35894;DHT22;21994;48.204;16.516;2023-04-15T14:54:08;10.40;99.90
35894;DHT22;21994;48.204;16.516;2023-04-15T14:56:33;10.30;99.90
35894;DHT22;21994;48.204;16.516;2023-04-15T14:59:00;10.30;99.90
35894;DHT22;21994;48.204;16.516;2023-04-15T15:01:25;10.30;99.90
35894;DHT22;21994;48.204;16.516;2023-04-15T15:03:54;10.20;99.90
35894;DHT22;21994;48.204;16.516;2023-04-15T15:06:20;10.20;99.90
35894;DHT22;21994;48.204;16.516;2023-04-15T15:08:47;10.10;99.90
35894;DHT22;21994;48.204;16.516;2023-04-15T15:11:13;10.10;99.90
35894;DHT22;21994;48.204;16.516;2023-04-15T15:13:40;9.90;99.90
35894;DHT22;21994;48.204;16.516;2023-04-15T15:16:06;9.70;99.90
35894;DHT22;21994;48.204;16.516;2023-04-15T15:18:32;9.70;99.90
35894;DHT22;21994;48.204;16.516;2023-04-15T15:20:57;9.70;99.90
35894;DHT22;21994;48.204;16.516;2023-04-15T15:23:23;9.70;99.90
35894;DHT22;21994;48.204;16.516;2023-04-15T15:25:49;9.70;99.90
35894;DHT22;21994;48.204;16.516;2023-04-15T15:28:15;9.60;99.90
35894;DHT22;21994;48.204;16.516;2023-04-15T15:30:41;9.50;99.90
35894;DHT22;21994;48.204;16.516;2023-04-15T15:33:06;9.40;99.90
35894;DHT22;21994;48.204;16.516;2023-04-15T15:35:32;9.20;99.90
35894;DHT22;21994;48.204;16.516;2023-04-15T15:37:58;9.20;99.90
35894;DHT22;21994;48.204;16.516;2023-04-15T15:40:25;9.20;99.90
35894;DHT22;21994;48.204;16.516;2023-04-15T15:42:51;9.20;99.90
35894;DHT22;21994;48.204;16.516;2023-04-15T15:45:17;9.20;99.90